createdAt,value
2019-01-27T00:00:36.286Z,99067.42
2019-01-27T00:03:38.650Z,99071.99
2019-01-27T00:06:40.816Z,99064.05
2019-01-27T00:09:45.333Z,99057.99
2019-01-27T00:12:47.511Z,99055.94
2019-01-27T00:15:51.003Z,99047.10
2019-01-27T00:18:53.181Z,99045.92
2019-01-27T00:21:55.275Z,99052.64
2019-01-27T00:24:59.357Z,99042.15
2019-01-27T00:28:02.758Z,99035.17
2019-01-27T00:31:17.522Z,99038.70
2019-01-27T00:34:19.578Z,99023.72
2019-01-27T00:37:22.016Z,99001.67
2019-01-27T00:40:24.622Z,98995.05
2019-01-27T00:43:26.655Z,98984.70
2019-01-27T00:46:31.361Z,98981.03
2019-01-27T00:49:33.425Z,98975.20
2019-01-27T00:52:35.432Z,98971.61
2019-01-27T00:55:37.959Z,98959.13
2019-01-27T00:58:40.273Z,98955.43
2019-01-27T01:01:43.971Z,98953.10
2019-01-27T01:04:46.015Z,98939.95
2019-01-27T01:07:48.010Z,98926.41
2019-01-27T01:10:50.111Z,98922.44
2019-01-27T01:13:52.264Z,98913.65
2019-01-27T01:16:54.414Z,98910.92
2019-01-27T01:19:59.000Z,98908.08
2019-01-27T01:23:01.168Z,98901.70
2019-01-27T01:26:05.602Z,98899.89
2019-01-27T01:29:07.720Z,98892.67
2019-01-27T01:32:09.749Z,98885.60
2019-01-27T01:35:20.760Z,98879.34
2019-01-27T01:38:22.823Z,98867.11
2019-01-27T01:41:25.198Z,98863.36
2019-01-27T01:44:27.502Z,98859.37
2019-01-27T01:47:32.654Z,98862.41
2019-01-27T01:50:37.014Z,98843.48
2019-01-27T01:53:39.573Z,98838.61
2019-01-27T01:56:41.604Z,98833.05
2019-01-27T01:59:43.935Z,98833.31
2019-01-27T02:02:45.941Z,98822.98
2019-01-27T02:05:48.090Z,98827.97
2019-01-27T02:08:50.155Z,98828.13
2019-01-27T02:11:54.816Z,98820.25
2019-01-27T02:15:04.308Z,98812.64
2019-01-27T02:18:06.327Z,98810.15
2019-01-27T02:21:11.220Z,98795.09
2019-01-27T02:24:13.492Z,98786.16
2019-01-27T02:27:17.395Z,98780.87
2019-01-27T02:30:19.748Z,98771.33
2019-01-27T02:33:21.773Z,98766.39
2019-01-27T02:36:23.809Z,98760.84
2019-01-27T02:39:28.568Z,98757.45
2019-01-27T02:42:30.611Z,98741.08
2019-01-27T02:45:32.667Z,98739.45
2019-01-27T02:48:37.223Z,98734.73
2019-01-27T02:51:39.215Z,98735.91
2019-01-27T02:54:41.410Z,98719.44
2019-01-27T02:57:45.170Z,98715.30
2019-01-27T03:00:48.464Z,98715.58
2019-01-27T03:03:50.872Z,98708.79
2019-01-27T03:07:17.858Z,98708.45
2019-01-27T03:10:20.032Z,98698.49
2019-01-27T03:13:22.061Z,98686.55
2019-01-27T03:16:24.094Z,98678.55
2019-01-27T03:19:27.348Z,98668.82
2019-01-27T03:22:29.401Z,98668.94
2019-01-27T03:25:31.731Z,98661.27
2019-01-27T03:28:39.987Z,98643.22
2019-01-27T03:31:41.997Z,98659.11
2019-01-27T03:34:46.715Z,98648.52
2019-01-27T03:37:51.570Z,98641.77
2019-01-27T03:40:54.871Z,98648.32
2019-01-27T03:44:02.240Z,98643.75
2019-01-27T03:47:04.474Z,98638.02
2019-01-27T03:50:09.415Z,98634.74
2019-01-27T03:53:11.736Z,98625.60
2019-01-27T03:56:13.906Z,98623.08
2019-01-27T03:59:15.946Z,98622.78
2019-01-27T04:02:17.970Z,98613.31
2019-01-27T04:05:20.344Z,98606.19
2019-01-27T04:08:22.375Z,98602.02
2019-01-27T04:11:24.410Z,98604.87
2019-01-27T04:14:26.779Z,98593.44
2019-01-27T04:17:28.783Z,98590.41
2019-01-27T04:20:33.590Z,98585.88
2019-01-27T04:23:35.674Z,98581.30
2019-01-27T04:26:37.737Z,98573.09
2019-01-27T04:29:39.767Z,98570.33
2019-01-27T04:32:41.777Z,98571.41
2019-01-27T04:35:45.673Z,98567.03
2019-01-27T04:38:47.701Z,98560.91
2019-01-27T04:41:49.719Z,98559.36
2019-01-27T04:44:53.350Z,98557.77
2019-01-27T04:47:55.388Z,98555.41
2019-01-27T04:50:57.399Z,98547.99
2019-01-27T04:53:59.706Z,98539.23
2019-01-27T04:57:02.802Z,98533.93
2019-01-27T05:00:07.752Z,98537.58
2019-01-27T05:03:26.958Z,98524.66
2019-01-27T05:06:28.953Z,98531.27
2019-01-27T05:09:30.979Z,98532.19
2019-01-27T05:12:38.124Z,98533.60
2019-01-27T05:15:40.236Z,98527.46
2019-01-27T05:18:42.243Z,98530.42
2019-01-27T05:21:44.262Z,98522.33
2019-01-27T05:24:46.579Z,98524.52
2019-01-27T05:27:48.650Z,98522.98
2019-01-27T05:30:53.428Z,98522.12
2019-01-27T05:33:55.678Z,98514.54
2019-01-27T05:36:57.703Z,98512.63
2019-01-27T05:39:59.720Z,98514.08
2019-01-27T05:43:01.749Z,98508.69
2019-01-27T05:46:03.979Z,98505.45
2019-01-27T05:49:05.999Z,98499.31
2019-01-27T05:52:08.078Z,98494.58
2019-01-27T05:55:11.996Z,98491.17
2019-01-27T05:58:14.074Z,98485.77
2019-01-27T06:01:16.107Z,98487.87
2019-01-27T06:04:18.319Z,98481.01
2019-01-27T06:07:20.303Z,98481.80
2019-01-27T06:10:22.324Z,98473.73
2019-01-27T06:13:27.290Z,98479.45
2019-01-27T06:16:29.313Z,98478.10
2019-01-27T06:19:33.610Z,98476.43
2019-01-27T06:22:35.619Z,98465.58
2019-01-27T06:25:37.923Z,98466.86
2019-01-27T06:28:39.933Z,98465.51
2019-01-27T06:31:44.442Z,98460.86
2019-01-27T06:34:46.857Z,98463.39
2019-01-27T06:37:50.070Z,98467.02
2019-01-27T06:40:52.130Z,98463.77
2019-01-27T06:43:54.352Z,98460.17
2019-01-27T06:46:56.417Z,98458.84
2019-01-27T06:49:58.436Z,98452.08
2019-01-27T06:53:00.467Z,98459.54
2019-01-27T06:56:04.680Z,98446.34
2019-01-27T06:59:29.560Z,98457.96
2019-01-27T07:02:36.235Z,98449.64
2019-01-27T07:05:49.494Z,98447.26
2019-01-27T07:09:09.279Z,98454.59
2019-01-27T07:12:45.727Z,98444.08
2019-01-27T07:16:01.475Z,98444.24
2019-01-27T07:19:24.000Z,98440.80
2019-01-27T07:22:31.572Z,98430.41
2019-01-27T07:25:52.343Z,98441.27
2019-01-27T07:29:12.804Z,98434.98
2019-01-27T07:32:34.755Z,98436.34
2019-01-27T07:36:02.660Z,98439.33
2019-01-27T07:39:24.825Z,98430.30
2019-01-27T07:42:55.324Z,98428.73
2019-01-27T07:46:03.155Z,98435.98
2019-01-27T07:49:15.665Z,98428.66
2019-01-27T07:52:35.730Z,98434.36
2019-01-27T07:55:56.097Z,98436.92
2019-01-27T07:59:06.001Z,98441.01
2019-01-27T08:02:32.631Z,98445.22
2019-01-27T08:05:43.330Z,98439.68
2019-01-27T08:08:53.789Z,98442.88
2019-01-27T08:12:21.948Z,98441.27
2019-01-27T08:15:45.075Z,98441.02
2019-01-27T08:18:59.539Z,98441.59
2019-01-27T08:22:23.913Z,98441.77
2019-01-27T08:25:34.169Z,98436.92
2019-01-27T08:29:03.973Z,98437.18
2019-01-27T08:32:31.174Z,98443.06
2019-01-27T08:35:59.921Z,98441.48
2019-01-27T08:39:20.459Z,98448.25
2019-01-27T08:42:57.456Z,98449.25
2019-01-27T08:46:17.724Z,98449.48
2019-01-27T08:49:19.813Z,98443.31
2019-01-27T08:52:25.043Z,98448.00
2019-01-27T08:55:27.122Z,98442.11
2019-01-27T08:58:32.296Z,98445.38
2019-01-27T09:01:43.361Z,98449.43
2019-01-27T09:04:59.392Z,98440.94
2019-01-27T09:08:24.389Z,98442.84
2019-01-27T09:11:38.604Z,98439.99
2019-01-27T09:15:03.583Z,98444.16
2019-01-27T09:18:23.820Z,98446.34
2019-01-27T09:21:54.598Z,98452.92
2019-01-27T09:25:34.643Z,98450.78
2019-01-27T09:28:45.419Z,98449.91
2019-01-27T09:32:15.041Z,98457.78
2019-01-27T09:35:35.293Z,98461.13
2019-01-27T09:38:55.786Z,98458.12
2019-01-27T09:42:13.607Z,98455.37
2019-01-27T09:45:27.730Z,98462.13
2019-01-27T09:48:55.910Z,98464.40
2019-01-27T09:52:14.893Z,98460.91
2019-01-27T09:55:26.042Z,98469.64
2019-01-27T09:58:56.725Z,98464.00
2019-01-27T10:02:06.167Z,98464.38
2019-01-27T10:05:24.067Z,98461.73
2019-01-27T10:08:42.240Z,98465.24
2019-01-27T10:12:01.888Z,98463.44
2019-01-27T10:15:30.172Z,98465.63
2019-01-27T10:18:54.699Z,98468.70
2019-01-27T10:22:04.381Z,98463.33
2019-01-27T10:25:43.435Z,98459.11
2019-01-27T10:28:54.703Z,98465.13
2019-01-27T10:32:08.877Z,98465.83
2019-01-27T10:35:23.897Z,98457.59
2019-01-27T10:38:44.519Z,98462.97
2019-01-27T10:42:08.980Z,98467.16
2019-01-27T10:45:33.366Z,98466.29
2019-01-27T10:48:45.483Z,98466.59
2019-01-27T10:52:01.300Z,98469.30
2019-01-27T10:55:21.052Z,98462.97
2019-01-27T10:58:38.858Z,98467.75
2019-01-27T11:02:03.228Z,98472.11
2019-01-27T11:05:25.956Z,98462.63
2019-01-27T11:08:38.148Z,98468.20
2019-01-27T11:12:05.520Z,98475.08
2019-01-27T11:15:46.647Z,98480.29
2019-01-27T11:19:06.839Z,98475.69
2019-01-27T11:22:36.127Z,98473.17
2019-01-27T11:26:00.744Z,98474.54
2019-01-27T11:29:23.119Z,98478.44
2019-01-27T11:32:44.204Z,98486.25
2019-01-27T11:36:08.672Z,98491.06
2019-01-27T11:39:37.451Z,98497.56
2019-01-27T11:43:00.188Z,98496.57
2019-01-27T11:46:21.962Z,98499.92
2019-01-27T11:49:49.283Z,98523.37
2019-01-27T11:53:03.047Z,98521.70
2019-01-27T11:56:05.638Z,98522.06
2019-01-27T11:59:08.903Z,98523.68
2019-01-27T12:02:10.936Z,98528.60
2019-01-27T12:05:13.491Z,98534.84
2019-01-27T12:08:15.529Z,98544.11
2019-01-27T12:11:20.401Z,98545.23
2019-01-27T12:14:22.655Z,98547.08
2019-01-27T12:17:24.783Z,98550.81
2019-01-27T12:20:32.034Z,98556.97
2019-01-27T12:23:36.878Z,98562.56
2019-01-27T12:26:44.632Z,98565.94
2019-01-27T12:29:46.661Z,98576.02
2019-01-27T12:32:48.964Z,98565.16
2019-01-27T12:35:52.467Z,98574.95
2019-01-27T12:38:57.672Z,98570.20
2019-01-27T12:41:59.674Z,98582.89
2019-01-27T12:45:03.926Z,98582.39
2019-01-27T12:48:07.043Z,98593.55
2019-01-27T12:51:09.104Z,98598.00
2019-01-27T12:54:11.359Z,98600.29
2019-01-27T12:57:16.433Z,98598.20
2019-01-27T13:00:26.390Z,98604.27
2019-01-27T13:03:28.710Z,98608.72
2019-01-27T13:06:30.703Z,98613.99
2019-01-27T13:09:32.797Z,98616.14
2019-01-27T13:12:35.005Z,98613.48
2019-01-27T13:15:37.202Z,98619.77
2019-01-27T13:18:39.273Z,98617.08
2019-01-27T13:24:56.814Z,98615.91
2019-01-27T13:27:58.816Z,98626.66
2019-01-27T13:31:01.467Z,98627.17
2019-01-27T13:34:03.879Z,98625.59
2019-01-27T13:37:05.902Z,98627.96
2019-01-27T13:40:15.177Z,98625.77
2019-01-27T13:43:17.194Z,98625.91
2019-01-27T13:46:19.420Z,98640.72
2019-01-27T13:49:21.525Z,98644.34
2019-01-27T13:52:23.528Z,98648.39
2019-01-27T13:55:28.526Z,98649.69
2019-01-27T13:58:30.521Z,98653.98
2019-01-27T14:01:33.797Z,98650.73
2019-01-27T14:04:35.805Z,98654.02
2019-01-27T14:07:37.932Z,98669.34
2019-01-27T14:10:39.949Z,98666.16
2019-01-27T14:13:41.981Z,98675.53
2019-01-27T14:16:43.973Z,98683.72
2019-01-27T14:19:48.115Z,98688.41
2019-01-27T14:22:53.527Z,98687.34
2019-01-27T14:25:55.671Z,98685.20
2019-01-27T14:28:57.844Z,98692.22
2019-01-27T14:31:59.869Z,98694.89
2019-01-27T14:35:06.523Z,98695.03
2019-01-27T14:38:11.571Z,98704.13
2019-01-27T14:41:13.587Z,98704.02
2019-01-27T14:44:15.937Z,98713.02
2019-01-27T14:47:18.012Z,98725.81
2019-01-27T14:50:23.120Z,98729.58
2019-01-27T14:53:26.368Z,98727.22
2019-01-27T14:56:28.594Z,98729.59
2019-01-27T14:59:32.815Z,98735.64
2019-01-27T15:02:35.101Z,98743.66
2019-01-27T15:05:38.572Z,98745.54
2019-01-27T15:08:40.592Z,98749.78
2019-01-27T15:11:45.145Z,98752.70
2019-01-27T15:14:47.312Z,98756.59
2019-01-27T15:17:49.349Z,98781.52
2019-01-27T15:21:00.343Z,98797.11
2019-01-27T15:24:02.368Z,98793.68
2019-01-27T15:27:04.547Z,98791.34
2019-01-27T15:30:11.565Z,98793.05
2019-01-27T15:33:13.643Z,98797.17
2019-01-27T15:36:15.862Z,98795.02
2019-01-27T15:39:20.718Z,98803.62
2019-01-27T15:42:22.751Z,98806.27
2019-01-27T15:45:27.477Z,98812.69
2019-01-27T15:48:36.882Z,98805.27
2019-01-27T15:51:38.975Z,98807.92
2019-01-27T15:54:41.353Z,98810.05
2019-01-27T15:57:43.392Z,98823.75
2019-01-27T16:00:45.682Z,98827.06
2019-01-27T16:03:47.753Z,98838.92
2019-01-27T16:06:49.828Z,98832.67
2019-01-27T16:09:52.140Z,98827.07
2019-01-27T16:12:54.165Z,98830.67
2019-01-27T16:15:58.879Z,98835.78
2019-01-27T16:19:07.016Z,98841.58
2019-01-27T16:22:09.021Z,98837.76
2019-01-27T16:25:13.690Z,98838.45
2019-01-27T16:28:15.865Z,98837.78
2019-01-27T16:31:35.850Z,98839.62
2019-01-27T16:34:53.761Z,98841.75
2019-01-27T16:37:55.935Z,98843.55
2019-01-27T16:40:58.016Z,98852.47
2019-01-27T16:44:01.522Z,98854.64
2019-01-27T16:47:03.569Z,98849.53
2019-01-27T16:50:08.616Z,98848.34
2019-01-27T16:53:10.662Z,98846.22
2019-01-27T16:56:17.665Z,98852.13
2019-01-27T16:59:21.686Z,98857.27
2019-01-27T17:02:23.722Z,98856.45
2019-01-27T17:05:25.962Z,98853.31
2019-01-27T17:08:27.969Z,98864.72
2019-01-27T17:11:37.926Z,98866.03
2019-01-27T17:14:40.276Z,98860.57
2019-01-27T17:17:42.485Z,98862.38
2019-01-27T17:20:45.709Z,98857.23
2019-01-27T17:23:50.058Z,98850.31
2019-01-27T17:26:54.722Z,98857.91
2019-01-27T17:29:59.374Z,98863.98
2019-01-27T17:33:03.554Z,98857.41
2019-01-27T17:36:05.794Z,98863.68
2019-01-27T17:39:09.577Z,98850.16
2019-01-27T17:42:11.833Z,98849.99
2019-01-27T17:45:14.985Z,98855.76
2019-01-27T17:48:17.152Z,98855.78
2019-01-27T17:51:19.180Z,98859.38
2019-01-27T17:54:21.470Z,98850.02
2019-01-27T17:57:34.952Z,98851.00
2019-01-27T18:01:11.509Z,98851.33
2019-01-27T18:04:31.798Z,98852.80
2019-01-27T18:07:48.829Z,98853.14
2019-01-27T18:11:10.441Z,98851.00
2019-01-27T18:14:17.098Z,98849.02
2019-01-27T18:17:19.158Z,98851.18
2019-01-27T18:20:21.170Z,98846.53
2019-01-27T18:23:23.266Z,98849.36
2019-01-27T18:26:26.557Z,98854.14
2019-01-27T18:29:28.938Z,98841.11
2019-01-27T18:32:31.006Z,98846.20
2019-01-27T18:35:34.807Z,98846.88
2019-01-27T18:38:36.817Z,98849.52
2019-01-27T18:41:40.365Z,98852.66
2019-01-27T18:44:42.618Z,98852.63
2019-01-27T18:47:44.658Z,98849.81
2019-01-27T18:50:47.751Z,98847.52
2019-01-27T18:54:06.568Z,98849.36
2019-01-27T18:57:26.260Z,98838.12
2019-01-27T19:00:35.560Z,98837.80
2019-01-27T19:03:59.923Z,98837.29
2019-01-27T19:07:20.862Z,98837.14
2019-01-27T19:10:42.336Z,98828.39
2019-01-27T19:14:05.630Z,98828.89
2019-01-27T19:17:35.222Z,98831.34
2019-01-27T19:21:06.287Z,98838.61
2019-01-27T19:24:29.575Z,98834.32
2019-01-27T19:27:58.994Z,98832.66
2019-01-27T19:31:10.478Z,98831.52
2019-01-27T19:34:37.246Z,98827.73
2019-01-27T19:37:55.398Z,98824.09
2019-01-27T19:41:11.553Z,98819.16
2019-01-27T19:44:23.886Z,98824.56
2019-01-27T19:47:35.161Z,98822.59
2019-01-27T19:50:44.727Z,98824.22
2019-01-27T19:54:06.393Z,98829.19
2019-01-27T19:57:21.376Z,98835.98
2019-01-27T20:00:46.466Z,98830.69
2019-01-27T20:04:10.963Z,98822.27
2019-01-27T20:07:31.293Z,98819.14
2019-01-27T20:10:59.938Z,98809.90
2019-01-27T20:14:27.773Z,98807.27
2019-01-27T20:17:49.408Z,98811.19
2019-01-27T20:21:03.717Z,98805.59
2019-01-27T20:24:34.970Z,98804.09
2019-01-27T20:27:51.711Z,98797.17
2019-01-27T20:31:22.044Z,98793.69
2019-01-27T20:34:52.793Z,98790.70
2019-01-27T20:38:13.133Z,98800.33
2019-01-27T20:41:43.836Z,98780.84
2019-01-27T20:44:55.108Z,98788.28
2019-01-27T20:48:19.749Z,98781.33
2019-01-27T20:51:38.595Z,98779.34
2019-01-27T20:54:51.078Z,98771.94
2019-01-27T20:58:00.997Z,98762.88
2019-01-27T21:01:24.559Z,98767.48
2019-01-27T21:04:45.107Z,98761.05
2019-01-27T21:08:05.513Z,98758.73
2019-01-27T21:11:36.259Z,98758.58
2019-01-27T21:15:03.711Z,98754.44
2019-01-27T21:18:28.344Z,98734.82
2019-01-27T21:21:33.355Z,98745.21
2019-01-27T21:24:35.771Z,98737.95
2019-01-27T21:27:37.799Z,98723.28
2019-01-27T21:30:39.919Z,98725.40
2019-01-27T21:33:43.163Z,98717.31
2019-01-27T21:36:45.234Z,98718.80
2019-01-27T21:39:47.262Z,98710.24
2019-01-27T21:42:54.351Z,98711.06
2019-01-27T21:45:58.004Z,98707.92
2019-01-27T21:49:03.062Z,98711.23
2019-01-27T21:52:05.158Z,98692.43
2019-01-27T21:55:07.471Z,98699.99
2019-01-27T21:58:09.542Z,98692.94
2019-01-27T22:01:11.732Z,98693.58
2019-01-27T22:04:14.939Z,98688.48
2019-01-27T22:07:16.978Z,98682.19
2019-01-27T22:10:20.498Z,98666.68
2019-01-27T22:13:22.541Z,98669.66
2019-01-27T22:16:25.007Z,98675.59
2019-01-27T22:19:27.321Z,98674.93
2019-01-27T22:22:29.542Z,98663.91
2019-01-27T22:25:31.775Z,98658.13
2019-01-27T22:28:34.047Z,98653.34
2019-01-27T22:31:36.153Z,98660.59
2019-01-27T22:34:43.170Z,98652.84
2019-01-27T22:37:48.356Z,98639.17
2019-01-27T22:40:50.503Z,98641.94
2019-01-27T22:43:54.487Z,98641.14
2019-01-27T22:46:56.507Z,98625.32
2019-01-27T22:49:58.523Z,98634.03
2019-01-27T22:53:03.309Z,98624.81
2019-01-27T22:56:05.594Z,98627.77
2019-01-27T22:59:07.790Z,98616.06
2019-01-27T23:02:09.803Z,98611.97
2019-01-27T23:05:11.872Z,98606.81
2019-01-27T23:08:13.963Z,98604.32
2019-01-27T23:11:17.714Z,98603.20
2019-01-27T23:14:19.964Z,98593.80
2019-01-27T23:17:21.951Z,98595.12
2019-01-27T23:20:24.312Z,98585.55
2019-01-27T23:23:26.394Z,98581.10
2019-01-27T23:26:28.545Z,98581.23
2019-01-27T23:29:31.087Z,98574.34
2019-01-27T23:32:34.996Z,98575.69
2019-01-27T23:35:40.041Z,98583.42
2019-01-27T23:38:46.129Z,98583.37
2019-01-27T23:41:48.152Z,98584.23
2019-01-27T23:44:50.258Z,98581.95
2019-01-27T23:47:53.453Z,98587.86
2019-01-27T23:50:55.471Z,98593.27
2019-01-27T23:53:57.708Z,98592.97
2019-01-27T23:56:59.825Z,98597.87
